Time;durP1;ratioP1;P1;durP2;ratioP2;P2;SDS_P1;SDS_P2;PMS_P1;PMS_P2;Temp;Humidity;BMP_temperature;BMP_pressure;BME280_temperature;BME280_humidity;BME280_pressure;Samples;Min_cycle;Max_cycle;Signal;HPM_P1;HPM_P2
2022/02/09 00:01:13;;;;;;;5.45;3.80;;;1.70;76.20;;;;;;5070878;28;20189;-68
2022/02/09 00:03:50;;;;;;;6.30;3.72;;;1.70;75.80;;;;;;5070207;28;20645;-69
2022/02/09 00:06:37;;;;;;;8.25;4.50;;;1.80;75.40;;;;;;5070236;28;20228;-69
2022/02/09 00:09:04;;;;;;;7.90;4.25;;;1.80;74.30;;;;;;5071902;28;20185;-69
2022/02/09 00:11:39;;;;;;;7.97;3.90;;;1.80;73.00;;;;;;5072484;28;20189;-68
2022/02/09 00:14:16;;;;;;;7.22;5.15;;;1.80;72.20;;;;;;5071757;28;20361;-68
2022/02/09 00:17:06;;;;;;;7.50;4.72;;;1.80;71.10;;;;;;5072000;28;20186;-69
2022/02/09 00:19:42;;;;;;;9.07;4.32;;;1.80;70.40;;;;;;5051909;28;20646;-68
2022/02/09 00:22:24;;;;;;;6.28;3.45;;;1.80;70.50;;;;;;5068791;28;20539;-69
2022/02/09 00:25:29;;;;;;;13.32;6.47;;;1.80;70.80;;;;;;5071596;28;20193;-69
2022/02/09 00:28:16;;;;;;;8.10;5.30;;;1.70;71.60;;;;;;5051915;28;20186;-69
2022/02/09 00:31:15;;;;;;;9.77;5.07;;;1.70;72.80;;;;;;5055619;28;20544;-68
2022/02/09 00:36:53;;;;;;;11.50;5.55;;;1.70;72.80;;;;;;5070786;28;20193;-69
2022/02/09 00:42:20;;;;;;;7.75;4.30;;;1.70;72.00;;;;;;5070067;28;20197;-69
2022/02/09 00:45:19;;;;;;;7.53;4.68;;;1.70;71.50;;;;;;5051512;28;20282;-68
2022/02/09 00:59:23;;;;;;;10.35;7.05;;;1.50;71.30;;;;;;5049074;28;20213;-69
2022/02/09 01:57:10;;;;;;;4.55;3.10;;;0.60;77.40;;;;;;5070503;28;20236;-68
2022/02/09 01:59:38;;;;;;;5.07;2.75;;;0.70;77.90;;;;;;5070309;28;20228;-69
2022/02/09 02:02:07;;;;;;;4.32;2.92;;;0.80;78.40;;;;;;5073992;28;20190;-68
2022/02/09 02:04:34;;;;;;;7.78;2.30;;;0.80;78.30;;;;;;5073587;28;20221;-68
2022/02/09 02:07:05;;;;;;;3.40;2.60;;;0.90;78.40;;;;;;5074213;28;20224;-69
2022/02/09 02:09:35;;;;;;;5.63;2.60;;;0.90;78.30;;;;;;5073791;28;20186;-69
2022/02/09 02:12:10;;;;;;;5.00;2.30;;;1.00;78.40;;;;;;5074049;28;20243;-68
2022/02/09 02:14:41;;;;;;;3.20;2.30;;;1.00;78.00;;;;;;5073743;28;20190;-69
2022/02/09 02:17:16;;;;;;;4.03;2.90;;;1.10;77.90;;;;;;5073816;28;20235;-68
2022/02/09 02:19:46;;;;;;;4.53;2.90;;;1.20;77.60;;;;;;5053796;28;20240;-68
2022/02/09 02:22:34;;;;;;;4.05;2.20;;;1.20;76.90;;;;;;5053579;28;20248;-69
2022/02/09 02:28:07;;;;;;;3.17;2.40;;;1.20;75.20;;;;;;5068728;28;20269;-69
2022/02/09 02:33:26;;;;;;;4.57;2.67;;;1.10;73.40;;;;;;5071602;28;20185;-68
2022/02/09 02:36:18;;;;;;;4.30;2.70;;;1.10;73.30;;;;;;5073066;28;20240;-69
2022/02/09 02:42:49;;;;;;;6.25;2.90;;;1.00;73.30;;;;;;5072556;28;20186;-69
2022/02/09 02:56:41;;;;;;;4.35;3.08;;;0.90;72.80;;;;;;5072890;28;20201;-68
2022/02/09 03:10:07;;;;;;;3.90;2.40;;;0.80;75.00;;;;;;5071952;28;20498;-69
2022/02/09 03:12:39;;;;;;;4.10;2.78;;;0.80;75.00;;;;;;5072719;28;20189;-69
2022/02/09 03:15:25;;;;;;;5.80;3.33;;;0.80;74.80;;;;;;5072078;28;20664;-68
2022/02/09 03:18:05;;;;;;;4.85;2.40;;;0.80;74.90;;;;;;5072503;28;20200;-68
2022/02/09 03:20:34;;;;;;;12.73;2.08;;;0.80;74.70;;;;;;5071906;28;20581;-69
2022/02/09 03:23:14;;;;;;;3.20;2.10;;;0.70;74.80;;;;;;5072256;28;20205;-68
2022/02/09 03:26:07;;;;;;;4.60;2.85;;;0.70;76.20;;;;;;5071970;28;20213;-71
2022/02/09 03:48:05;;;;;;;3.78;2.58;;;0.60;76.70;;;;;;5058515;28;20656;-68
2022/02/09 03:50:48;;;;;;;6.45;3.00;;;0.60;76.00;;;;;;5071456;28;20189;-68
2022/02/09 03:53:29;;;;;;;5.10;2.90;;;0.60;76.10;;;;;;5071418;28;20232;-68
2022/02/09 03:56:24;;;;;;;3.78;2.45;;;0.50;76.00;;;;;;5071363;28;20181;-68
2022/02/09 03:58:51;;;;;;;4.55;3.25;;;0.60;75.00;;;;;;5070945;28;20198;-71
2022/02/09 04:01:23;;;;;;;4.63;2.70;;;0.50;74.30;;;;;;5071749;28;20190;-68
2022/02/09 04:03:50;;;;;;;3.85;2.45;;;0.50;74.60;;;;;;5071806;28;20284;-68
2022/02/09 04:06:17;;;;;;;4.85;3.25;;;0.50;75.60;;;;;;5071396;28;20305;-69
2022/02/09 04:08:50;;;;;;;4.82;2.70;;;0.60;76.20;;;;;;5071708;28;20193;-68
2022/02/09 04:11:23;;;;;;;5.07;3.50;;;0.60;75.10;;;;;;5070717;28;20193;-69
2022/02/09 04:13:58;;;;;;;5.20;2.90;;;0.50;73.90;;;;;;5071530;28;20190;-69
2022/02/09 04:16:41;;;;;;;3.92;2.90;;;0.50;73.00;;;;;;5071062;28;20229;-69
2022/02/09 04:19:19;;;;;;;6.18;3.00;;;0.40;72.50;;;;;;5071330;28;20189;-70
2022/02/09 04:38:21;;;;;;;4.78;3.33;;;0.10;71.50;;;;;;5070505;28;20196;-68
2022/02/09 04:43:57;;;;;;;5.82;3.47;;;-0.10;71.10;;;;;;5047893;28;20190;-68
2022/02/09 04:52:13;;;;;;;5.05;3.05;;;-0.10;72.40;;;;;;5069778;28;20208;-68
2022/02/09 04:54:45;;;;;;;6.20;3.17;;;-0.10;72.20;;;;;;5071020;28;20181;-69
2022/02/09 04:57:17;;;;;;;6.38;3.45;;;-0.10;72.30;;;;;;5070948;28;20194;-68
2022/02/09 04:59:53;;;;;;;5.15;3.40;;;-0.20;72.20;;;;;;5070518;28;20570;-68
2022/02/09 05:02:52;;;;;;;5.40;3.13;;;-0.20;71.90;;;;;;5071171;28;20194;-68
2022/02/09 05:19:55;;;;;;;8.18;5.43;;;-0.50;73.80;;;;;;5070796;28;20655;-70
2022/02/09 05:24:50;;;;;;;7.95;5.25;;;-0.60;73.90;;;;;;5065909;28;20577;-69
2022/02/09 05:27:20;;;;;;;7.40;4.22;;;-0.50;74.10;;;;;;5069726;28;20217;-69
2022/02/09 05:29:48;;;;;;;7.30;3.70;;;-0.50;73.40;;;;;;5070480;28;20186;-69
2022/02/09 05:32:15;;;;;;;8.25;4.25;;;-0.50;73.10;;;;;;5069782;28;20193;-68
2022/02/09 05:34:42;;;;;;;5.53;3.85;;;-0.50;71.80;;;;;;5070162;28;20194;-68
2022/02/09 05:37:11;;;;;;;5.07;3.10;;;-0.70;71.50;;;;;;5073272;28;20604;-72
2022/02/09 05:39:40;;;;;;;5.43;2.95;;;-0.80;72.20;;;;;;5054438;28;20558;-70
2022/02/09 05:42:09;;;;;;;3.78;2.55;;;-0.80;73.70;;;;;;5052643;28;20679;-69
2022/02/09 05:44:37;;;;;;;3.70;2.65;;;-0.80;74.30;;;;;;5072215;28;20261;-70
2022/02/09 05:47:56;;;;;;;3.90;2.78;;;-0.80;74.50;;;;;;5071687;28;20214;-69
2022/02/09 05:50:27;;;;;;;6.53;4.15;;;-0.80;74.30;;;;;;5073079;28;20218;-68
2022/02/09 05:53:08;;;;;;;6.35;3.65;;;-0.80;74.10;;;;;;5073714;28;20601;-68
2022/02/09 05:55:46;;;;;;;8.85;5.28;;;-0.70;74.50;;;;;;5073707;28;20545;-68
2022/02/09 05:58:22;;;;;;;7.57;3.85;;;-0.70;74.60;;;;;;5073531;28;20186;-68
2022/02/09 06:00:49;;;;;;;10.00;4.20;;;-0.70;75.00;;;;;;5073127;28;20288;-68
2022/02/09 06:03:17;;;;;;;7.40;3.95;;;-0.70;75.20;;;;;;5073704;28;20190;-68
2022/02/09 06:05:45;;;;;;;5.90;3.40;;;-0.70;74.60;;;;;;5073183;28;20185;-68
2022/02/09 06:08:13;;;;;;;6.05;3.90;;;-0.70;74.10;;;;;;5073594;28;20204;-68
2022/02/09 06:10:47;;;;;;;8.57;4.25;;;-0.70;73.20;;;;;;5073236;28;20185;-68
2022/02/09 06:13:21;;;;;;;7.15;3.70;;;-0.80;72.20;;;;;;5073119;28;20616;-70
2022/02/09 06:16:06;;;;;;;6.63;4.75;;;-0.80;72.50;;;;;;5072999;28;20189;-68
2022/02/09 06:21:19;;;;;;;10.32;5.75;;;-0.80;73.00;;;;;;5073020;28;20332;-68
2022/02/09 06:23:48;;;;;;;8.15;5.07;;;-0.80;72.90;;;;;;5072803;28;20216;-68
2022/02/09 06:26:16;;;;;;;11.48;6.22;;;-0.80;73.10;;;;;;5072780;28;20214;-68
2022/02/09 06:28:44;;;;;;;9.93;5.75;;;-0.80;72.80;;;;;;5073046;28;20189;-68
2022/02/09 06:31:11;;;;;;;12.15;5.93;;;-0.80;72.60;;;;;;5072939;28;20182;-68
2022/02/09 06:33:38;;;;;;;12.75;4.95;;;-0.80;72.60;;;;;;5073250;28;20258;-68
2022/02/09 06:36:09;;;;;;;8.98;5.10;;;-0.80;72.00;;;;;;5072707;28;20194;-68
2022/02/09 06:38:39;;;;;;;10.10;5.93;;;-0.90;71.50;;;;;;5072843;28;20558;-68
2022/02/09 06:41:09;;;;;;;7.68;4.10;;;-0.90;71.80;;;;;;5072727;28;20325;-68
2022/02/09 06:43:37;;;;;;;7.20;4.18;;;-0.90;72.60;;;;;;5072770;28;20182;-69
2022/02/09 06:46:04;;;;;;;7.80;4.75;;;-0.90;72.90;;;;;;5072566;28;20530;-69
2022/02/09 06:48:32;;;;;;;7.95;4.88;;;-0.80;73.00;;;;;;5073923;28;20194;-68
2022/02/09 06:51:07;;;;;;;5.50;4.38;;;-0.80;72.80;;;;;;5073744;28;20305;-68
2022/02/09 06:53:40;;;;;;;4.93;3.42;;;-0.80;73.70;;;;;;5053907;28;20225;-68
2022/02/09 06:56:08;;;;;;;7.40;4.68;;;-0.70;75.00;;;;;;5053840;28;20194;-69
2022/02/09 06:58:57;;;;;;;8.70;3.65;;;-0.50;74.70;;;;;;5073507;28;20648;-68
2022/02/09 07:01:24;;;;;;;9.65;4.03;;;-0.30;74.30;;;;;;5073200;28;20624;-68
2022/02/09 07:03:52;;;;;;;9.55;4.10;;;0.10;74.30;;;;;;5073777;28;20200;-68
2022/02/09 07:06:19;;;;;;;5.05;3.55;;;0.30;74.20;;;;;;5073048;28;20227;-71
2022/02/09 07:08:46;;;;;;;6.72;3.72;;;0.50;74.30;;;;;;5073388;28;20186;-68
2022/02/09 07:11:14;;;;;;;7.22;3.30;;;0.70;74.40;;;;;;5073198;28;20186;-68
2022/02/09 07:13:42;;;;;;;4.88;3.50;;;0.90;74.80;;;;;;5073727;28;20189;-68
2022/02/09 07:16:09;;;;;;;6.10;4.03;;;1.10;75.00;;;;;;5073450;28;20694;-69
2022/02/09 07:18:37;;;;;;;6.43;4.35;;;1.40;74.70;;;;;;5073618;28;20201;-69
2022/02/09 07:21:08;;;;;;;4.75;3.30;;;1.70;73.90;;;;;;5073098;28;20185;-69
2022/02/09 07:23:42;;;;;;;6.45;4.38;;;1.90;72.90;;;;;;5073501;28;20194;-69
2022/02/09 07:26:12;;;;;;;4.75;3.92;;;2.10;72.30;;;;;;5073314;28;20189;-69
2022/02/09 07:28:42;;;;;;;5.15;3.85;;;2.30;71.60;;;;;;5073555;28;20193;-68
2022/02/09 07:31:10;;;;;;;7.20;4.60;;;2.70;70.30;;;;;;5072978;28;20186;-71
2022/02/09 07:33:39;;;;;;;5.90;3.78;;;3.00;69.50;;;;;;5073460;28;20198;-68
2022/02/09 07:36:10;;;;;;;5.70;4.50;;;3.30;70.00;;;;;;5070980;28;20294;-69
2022/02/09 07:38:39;;;;;;;7.10;5.90;;;3.70;67.10;;;;;;5070017;28;20663;-70
2022/02/09 07:41:06;;;;;;;3.70;3.20;;;4.10;66.40;;;;;;5071583;28;20193;-69
2022/02/09 07:43:50;;;;;;;6.35;4.70;;;4.60;66.50;;;;;;5072315;28;20620;-68
2022/02/09 07:46:35;;;;;;;5.93;4.18;;;5.00;64.40;;;;;;5071629;28;20182;-69
2022/02/09 07:49:09;;;;;;;12.05;8.43;;;5.60;62.20;;;;;;5072207;28;20217;-69
2022/02/09 07:51:52;;;;;;;8.60;7.68;;;6.10;62.00;;;;;;5066514;28;20317;-67
2022/02/09 07:54:20;;;;;;;7.53;5.07;;;6.60;59.60;;;;;;5070304;28;20189;-66
2022/02/09 07:56:47;;;;;;;4.28;3.05;;;7.10;59.10;;;;;;5070320;28;20202;-66
2022/02/09 07:59:16;;;;;;;7.63;4.05;;;7.60;57.40;;;;;;5068964;28;20232;-66
2022/02/09 08:01:45;;;;;;;9.30;7.18;;;8.10;54.50;;;;;;5068998;28;20700;-66
2022/02/09 08:04:13;;;;;;;8.13;5.55;;;8.50;53.50;;;;;;5069423;28;20189;-67
2022/02/09 08:06:41;;;;;;;5.70;4.43;;;8.90;51.70;;;;;;5068726;28;20292;-67
2022/02/09 08:09:15;;;;;;;9.88;4.45;;;9.30;51.20;;;;;;5069373;28;20190;-66
2022/02/09 08:11:50;;;;;;;6.43;3.92;;;9.70;50.20;;;;;;5066937;28;20194;-67
2022/02/09 08:28:22;;;;;;;4.40;3.13;;;12.40;41.90;;;;;;5068980;28;20258;-68
2022/02/09 08:31:12;;;;;;;9.18;4.25;;;12.60;40.80;;;;;;5069835;28;20214;-66
2022/02/09 08:33:41;;;;;;;5.65;4.50;;;13.10;40.60;;;;;;5065372;28;20285;-67
2022/02/09 08:36:09;;;;;;;13.30;9.98;;;13.80;39.90;;;;;;5069013;28;20664;-68
2022/02/09 08:38:36;;;;;;;9.32;5.75;;;14.30;39.60;;;;;;5068333;28;20527;-67
2022/02/09 08:41:04;;;;;;;5.78;4.20;;;14.90;37.80;;;;;;5066189;28;20582;-67
2022/02/09 08:43:32;;;;;;;8.68;4.55;;;15.50;36.20;;;;;;5069106;28;20194;-66
2022/02/09 08:45:59;;;;;;;5.60;4.70;;;15.90;35.20;;;;;;5069083;28;20246;-69
2022/02/09 08:48:26;;;;;;;7.65;5.63;;;16.40;33.60;;;;;;5067949;28;20316;-66
2022/02/09 08:50:54;;;;;;;5.78;4.68;;;16.70;33.20;;;;;;5067441;28;20193;-67
2022/02/09 08:53:22;;;;;;;6.10;4.23;;;17.10;32.90;;;;;;5068733;28;21309;-67
2022/02/09 08:55:49;;;;;;;5.00;4.03;;;17.60;33.00;;;;;;5068791;28;20526;-67
2022/02/09 08:58:20;;;;;;;4.37;3.00;;;18.10;31.10;;;;;;5068580;28;20443;-67
2022/02/09 09:00:48;;;;;;;4.63;3.60;;;18.50;30.40;;;;;;5068391;28;20530;-68
2022/02/09 09:03:19;;;;;;;4.73;3.57;;;18.80;30.00;;;;;;5068801;28;20444;-68
2022/02/09 09:05:49;;;;;;;3.87;2.97;;;19.00;29.40;;;;;;5068007;28;20432;-67
2022/02/09 09:58:30;;;;;;;3.20;1.73;;;31.10;16.80;;;;;;5073482;28;20469;-68
2022/02/09 10:04:05;;;;;;;2.80;1.70;;;31.80;15.00;;;;;;5066585;28;20868;-68
2022/02/09 10:35:29;;;;;;;1.90;1.00;;;36.10;11.90;;;;;;5009306;28;20983;-68
2022/02/09 10:38:00;;;;;;;2.83;1.53;;;36.60;11.30;;;;;;5010834;28;20492;-68
2022/02/09 10:40:38;;;;;;;3.80;1.63;;;36.50;11.10;;;;;;5041257;28;20451;-68
2022/02/09 10:43:20;;;;;;;4.80;1.37;;;36.40;10.70;;;;;;5071579;28;20455;-69
2022/02/09 10:45:50;;;;;;;3.43;1.30;;;36.70;11.10;;;;;;5071462;28;21019;-68
2022/02/09 10:48:36;;;;;;;3.13;1.20;;;37.00;10.70;;;;;;5070034;28;20452;-68
2022/02/09 10:51:28;;;;;;;2.40;1.10;;;37.10;9.90;;;;;;5071003;28;20474;-68
2022/02/09 10:54:18;;;;;;;2.10;1.10;;;37.10;10.30;;;;;;5071413;28;20467;-68
2022/02/09 10:56:47;;;;;;;1.93;0.90;;;38.00;10.10;;;;;;5066854;28;20934;-68
2022/02/09 10:59:16;;;;;;;2.23;1.10;;;38.30;9.40;;;;;;5071481;28;20432;-68
2022/02/09 11:01:44;;;;;;;2.23;1.30;;;38.60;9.30;;;;;;5070674;28;20443;-69
2022/02/09 11:04:16;;;;;;;2.27;1.17;;;38.70;9.60;;;;;;5067773;28;20519;-68
2022/02/09 11:06:45;;;;;;;3.03;1.30;;;39.10;8.80;;;;;;5071487;28;20860;-69
2022/02/09 11:09:13;;;;;;;4.50;1.87;;;39.60;9.10;;;;;;5071394;28;20436;-69
2022/02/09 11:11:42;;;;;;;2.37;1.03;;;39.80;9.10;;;;;;5071466;28;20436;-68
2022/02/09 11:14:13;;;;;;;2.30;1.20;;;40.20;8.40;;;;;;5071201;28;20493;-69
2022/02/09 11:16:42;;;;;;;3.40;2.00;;;40.40;8.50;;;;;;5067954;28;20462;-70
2022/02/09 11:19:11;;;;;;;2.20;1.20;;;40.50;9.10;;;;;;5070817;28;20476;-69
2022/02/09 11:21:44;;;;;;;3.37;1.50;;;41.00;8.80;;;;;;5071174;28;20444;-69
2022/02/09 11:24:20;;;;;;;5.07;2.13;;;41.40;7.70;;;;;;5071488;28;20459;-69
2022/02/09 11:26:56;;;;;;;2.93;1.30;;;41.10;7.50;;;;;;5070944;28;20440;-68
2022/02/09 11:32:24;;;;;;;2.87;1.40;;;39.70;8.80;;;;;;5070715;28;20482;-70
2022/02/09 11:41:14;;;;;;;2.30;1.10;;;39.70;7.70;;;;;;5046076;28;20424;-69
2022/02/09 11:47:02;;;;;;;3.50;1.07;;;38.90;8.80;;;;;;5061072;28;20927;-68
2022/02/09 11:55:41;;;;;;;1.90;0.90;;;38.60;8.60;;;;;;5071269;28;20439;-69
2022/02/09 12:01:27;;;;;;;3.43;1.57;;;38.00;8.70;;;;;;5045279;28;20515;-70
2022/02/09 12:10:03;;;;;;;1.70;0.73;;;39.50;8.50;;;;;;5071177;28;20553;-69
2022/02/09 12:12:44;;;;;;;1.60;0.70;;;39.30;8.40;;;;;;5069771;28;20445;-68
2022/02/09 12:15:28;;;;;;;1.80;0.63;;;38.60;8.50;;;;;;5070420;28;20474;-69
2022/02/09 12:18:14;;;;;;;2.80;0.93;;;38.20;9.40;;;;;;5070599;28;21100;-69
2022/02/09 12:20:47;;;;;;;2.00;0.80;;;37.70;9.00;;;;;;5070208;28;20439;-69
2022/02/09 12:23:28;;;;;;;1.60;0.80;;;37.60;9.40;;;;;;5070888;28;20531;-69
2022/02/09 12:25:55;;;;;;;2.10;0.90;;;37.30;9.30;;;;;;5070375;28;20502;-68
2022/02/09 12:28:29;;;;;;;1.90;0.70;;;36.90;9.70;;;;;;5070294;28;20424;-68
2022/02/09 12:31:04;;;;;;;2.90;0.80;;;37.10;9.40;;;;;;5069800;28;20427;-69
2022/02/09 12:33:32;;;;;;;1.80;0.67;;;37.00;9.40;;;;;;5069185;28;20984;-74
2022/02/09 12:36:11;;;;;;;2.10;1.00;;;36.80;10.20;;;;;;5070673;28;20463;-69
2022/02/09 12:38:38;;;;;;;2.27;0.80;;;37.10;9.60;;;;;;5070904;28;20475;-69
2022/02/09 12:41:10;;;;;;;2.83;0.80;;;37.00;9.30;;;;;;5070890;28;20463;-68
2022/02/09 12:43:49;;;;;;;2.30;1.00;;;36.70;9.70;;;;;;5070786;28;20818;-69
2022/02/09 12:46:18;;;;;;;1.93;0.87;;;36.80;9.80;;;;;;5070886;28;20438;-69
2022/02/09 12:48:46;;;;;;;2.40;0.90;;;36.10;10.10;;;;;;5070696;28;20921;-68
2022/02/09 12:51:25;;;;;;;2.07;0.80;;;36.40;9.90;;;;;;5069566;28;20919;-69
2022/02/09 12:53:53;;;;;;;1.67;0.67;;;36.50;10.20;;;;;;5066667;28;20463;-69
2022/02/09 12:56:24;;;;;;;2.00;0.80;;;37.10;9.90;;;;;;5070656;28;20841;-69
2022/02/09 12:59:02;;;;;;;1.60;0.67;;;37.30;10.10;;;;;;5070245;28;20484;-69
2022/02/09 13:01:40;;;;;;;2.87;0.80;;;37.20;9.60;;;;;;5070999;28;20436;-69
2022/02/09 13:04:08;;;;;;;1.60;0.60;;;36.90;10.00;;;;;;5073317;28;20433;-69
2022/02/09 13:06:35;;;;;;;1.60;0.70;;;37.40;9.90;;;;;;5073039;28;20471;-69
2022/02/09 13:09:03;;;;;;;1.70;0.80;;;37.70;9.90;;;;;;5073197;28;20444;-69
2022/02/09 13:11:32;;;;;;;1.83;0.90;;;37.70;9.40;;;;;;5072974;28;20427;-69
2022/02/09 13:14:08;;;;;;;3.90;1.10;;;37.70;9.40;;;;;;5072991;28;20428;-69
2022/02/09 13:16:57;;;;;;;2.10;1.00;;;37.40;9.20;;;;;;5073004;28;20762;-69
2022/02/09 14:07:24;;;;;;;2.30;0.70;;;25.00;16.60;;;;;;5075417;28;20766;-68
2022/02/09 14:13:03;;;;;;;2.07;1.00;;;23.40;18.30;;;;;;5075749;28;20413;-68
2022/02/09 14:18:29;;;;;;;2.80;0.80;;;22.40;18.90;;;;;;5074616;28;20489;-68
2022/02/09 14:54:37;;;;;;;1.80;0.60;;;17.80;23.90;;;;;;5074943;28;20523;-68
2022/02/09 14:57:08;;;;;;;2.00;0.90;;;17.50;23.60;;;;;;5075036;28;20471;-68
2022/02/09 14:59:48;;;;;;;3.17;0.70;;;17.20;23.90;;;;;;5074879;28;20475;-67
2022/02/09 15:02:20;;;;;;;2.30;0.90;;;17.00;24.10;;;;;;5074474;28;20522;-67
2022/02/09 15:05:22;;;;;;;1.80;0.70;;;16.80;23.30;;;;;;5074665;28;20443;-67
2022/02/09 15:07:56;;;;;;;2.80;0.83;;;16.60;23.90;;;;;;5074312;28;20767;-68
2022/02/09 15:10:30;;;;;;;3.20;1.00;;;16.30;24.40;;;;;;5074597;28;20412;-67
2022/02/09 15:13:04;;;;;;;1.67;0.73;;;16.00;25.00;;;;;;5074609;28;20441;-67
2022/02/09 15:15:38;;;;;;;1.83;0.73;;;15.70;24.80;;;;;;5074713;28;20468;-68
2022/02/09 15:18:35;;;;;;;1.90;0.97;;;15.50;25.10;;;;;;5074587;28;20521;-70
2022/02/09 15:21:17;;;;;;;1.80;0.90;;;15.30;25.70;;;;;;5074540;28;20527;-68
2022/02/09 15:23:45;;;;;;;2.00;1.00;;;15.10;27.90;;;;;;5074053;28;20481;-67
2022/02/09 15:26:13;;;;;;;4.10;0.90;;;14.80;28.70;;;;;;5074372;28;20432;-67
2022/02/09 15:28:40;;;;;;;1.97;0.80;;;14.50;28.90;;;;;;5074274;28;20432;-67
2022/02/09 15:31:13;;;;;;;2.40;1.00;;;14.40;29.00;;;;;;5074262;28;20906;-68
2022/02/09 15:33:44;;;;;;;3.20;1.37;;;14.40;29.60;;;;;;5073998;28;20428;-68
2022/02/09 15:36:14;;;;;;;2.77;1.67;;;14.20;29.90;;;;;;5072667;28;20444;-67
2022/02/09 15:38:45;;;;;;;2.50;1.20;;;14.20;30.00;;;;;;5073067;28;20883;-68
2022/02/09 15:41:22;;;;;;;4.33;1.33;;;14.20;30.40;;;;;;5073025;28;20432;-67
2022/02/09 15:56:15;;;;;;;3.57;1.57;;;14.10;30.00;;;;;;5073841;28;20489;-68
2022/02/09 16:06:41;;;;;;;6.73;3.17;;;13.10;31.80;;;;;;5073276;28;20755;-67
2022/02/09 16:09:15;;;;;;;7.00;4.80;;;12.90;31.70;;;;;;5073113;28;20501;-69
2022/02/09 16:18:38;;;;;;;7.63;4.93;;;12.60;32.40;;;;;;5050450;28;20565;-67
2022/02/09 16:21:38;;;;;;;8.50;6.60;;;12.50;33.10;;;;;;5048856;28;20273;-67
2022/02/09 16:23:49;;;;;;;10.63;8.82;;;12.40;33.90;;;;;;5071459;28;20188;-67
2022/02/09 16:45:23;;;;;;;11.80;6.07;;;11.20;36.80;;;;;;5071266;28;20228;-69
2022/02/09 16:47:59;;;;;;;9.45;5.60;;;11.10;36.90;;;;;;5071706;28;20221;-66
2022/02/09 16:50:34;;;;;;;10.75;6.55;;;10.90;36.90;;;;;;5071485;28;20245;-66
2022/02/09 16:53:07;;;;;;;20.40;9.07;;;10.70;38.80;;;;;;5070783;28;20225;-67
2022/02/09 17:20:20;;;;;;;14.25;10.35;;;9.00;43.50;;;;;;5070722;28;20224;-66
2022/02/09 17:22:47;;;;;;;13.57;10.90;;;8.90;43.90;;;;;;5070943;28;20196;-66
2022/02/09 17:25:15;;;;;;;15.40;10.23;;;8.80;43.60;;;;;;5070650;28;20297;-67
2022/02/09 17:27:46;;;;;;;18.88;12.10;;;8.70;44.30;;;;;;5070710;28;20182;-68
2022/02/09 17:30:44;;;;;;;14.82;10.13;;;8.50;44.50;;;;;;5071485;28;20213;-67
2022/02/09 17:33:15;;;;;;;15.13;9.95;;;8.50;45.10;;;;;;5074940;28;20189;-67
2022/02/09 17:35:50;;;;;;;15.32;10.63;;;8.40;45.40;;;;;;5074760;28;20603;-67
2022/02/09 17:57:36;;;;;;;15.15;8.85;;;7.70;48.30;;;;;;5074158;28;20311;-66
2022/02/09 18:00:16;;;;;;;9.85;7.60;;;7.50;48.60;;;;;;5073953;28;20185;-66
2022/02/09 18:02:45;;;;;;;8.45;5.30;;;7.40;49.10;;;;;;5074109;28;20189;-67
2022/02/09 18:05:19;;;;;;;6.45;4.75;;;7.30;49.10;;;;;;5074130;28;20186;-66
2022/02/09 18:07:51;;;;;;;10.13;6.40;;;7.30;49.20;;;;;;5073540;28;20190;-67
2022/02/09 18:10:26;;;;;;;6.97;5.93;;;7.30;49.30;;;;;;5073885;28;20553;-67
2022/02/09 18:13:20;;;;;;;11.57;7.40;;;7.20;50.40;;;;;;5073877;28;20185;-67
2022/02/09 18:16:11;;;;;;;14.82;9.80;;;7.10;51.40;;;;;;5073673;28;20192;-66
2022/02/09 18:29:43;;;;;;;16.45;10.98;;;6.60;51.50;;;;;;5072808;28;20266;-67
2022/02/09 18:32:27;;;;;;;15.00;9.63;;;6.60;52.70;;;;;;5072534;28;20280;-67
2022/02/09 18:43:21;;;;;;;20.58;13.48;;;6.20;52.70;;;;;;5073893;28;20511;-67
2022/02/09 18:45:53;;;;;;;26.15;14.70;;;6.20;52.70;;;;;;5074548;28;20240;-66
2022/02/09 19:02:19;;;;;;;19.75;11.52;;;5.90;53.30;;;;;;5074168;28;20182;-66
2022/02/09 19:04:50;;;;;;;17.80;11.70;;;5.80;54.20;;;;;;5073723;28;20196;-67
2022/02/09 19:07:37;;;;;;;19.75;11.43;;;5.60;53.90;;;;;;5073922;28;20193;-66
2022/02/09 19:16:02;;;;;;;16.98;9.85;;;5.50;54.10;;;;;;5073734;28;20346;-68
2022/02/09 19:18:50;;;;;;;14.90;8.93;;;5.50;54.00;;;;;;5073573;28;20560;-66
2022/02/09 19:27:12;;;;;;;13.18;8.27;;;5.20;54.80;;;;;;5074072;28;20311;-67
2022/02/09 19:32:30;;;;;;;12.70;9.13;;;;;;;;;;5073107;28;20174;-66
2022/02/09 19:46:20;;;;;;;16.20;8.98;;;;;;;;;;5050375;28;20193;-67
2022/02/09 19:48:56;;;;;;;12.15;8.02;;;;;;;;;;5064020;28;20181;-66
2022/02/09 19:51:37;;;;;;;13.48;10.63;;;;;;;;;;5072354;28;20223;-66
2022/02/09 19:54:11;;;;;;;12.30;7.90;;;;;;;;;;5071717;28;20221;-66
2022/02/09 19:56:41;;;;;;;11.65;7.55;;;;;;;;;;5072650;28;20192;-67
2022/02/09 19:59:15;;;;;;;11.45;7.80;;;;;;;;;;5072374;28;20190;-68
2022/02/09 20:01:44;;;;;;;14.75;9.98;;;;;;;;;;5072697;28;20235;-66
2022/02/09 20:04:12;;;;;;;15.23;9.70;;;;;;;;;;5072513;28;20620;-67
2022/02/09 20:06:39;;;;;;;12.40;7.82;;;;;;;;;;5072438;28;20190;-67
2022/02/09 20:09:06;;;;;;;10.10;5.72;;;;;;;;;;5072246;28;20236;-66
2022/02/09 20:11:35;;;;;;;6.20;4.35;;;;;;;;;;5071337;28;20281;-66
2022/02/09 20:14:03;;;;;;;9.52;5.60;;;;;;;;;;5071483;28;20185;-66
2022/02/09 20:16:30;;;;;;;9.50;6.55;;;;;;;;;;5071849;28;20245;-67
2022/02/09 20:18:59;;;;;;;10.15;8.73;;;;;;;;;;5071793;28;20656;-67
2022/02/09 20:21:29;;;;;;;13.35;9.05;;;;;;;;;;5071339;28;20671;-66
2022/02/09 20:23:56;;;;;;;18.15;10.43;;;;;;;;;;5070514;28;20291;-67
2022/02/09 20:26:25;;;;;;;9.95;6.90;;;;;;;;;;5070824;28;20186;-67
2022/02/09 20:28:57;;;;;;;11.98;7.05;;;;;;;;;;5071256;28;20275;-67
2022/02/09 20:31:29;;;;;;;12.13;8.35;;;;;;;;;;5071561;28;20217;-67
2022/02/09 20:34:00;;;;;;;27.98;15.00;;;;;;;;;;5071158;28;20202;-66
2022/02/09 20:36:31;;;;;;;15.02;9.70;;;;;;;;;;5071120;28;20250;-67
2022/02/09 20:39:01;;;;;;;15.02;9.18;;;;;;;;;;5071594;28;20194;-67
2022/02/09 20:41:31;;;;;;;13.32;8.20;;;;;;;;;;5071174;28;20194;-66
2022/02/09 20:44:04;;;;;;;13.18;7.57;;;;;;;;;;5071029;28;20276;-66
2022/02/09 20:46:33;;;;;;;15.55;9.70;;;;;;;;;;5071031;28;20198;-66
2022/02/09 20:49:00;;;;;;;22.65;12.35;;;;;;;;;;5070767;28;20652;-66
2022/02/09 20:51:28;;;;;;;17.67;10.77;;;;;;;;;;5070737;28;20189;-67
2022/02/09 20:53:58;;;;;;;19.20;12.32;;;;;;;;;;5070813;28;20255;-67
2022/02/09 20:56:25;;;;;;;17.48;11.05;;;;;;;;;;5070299;28;20194;-66
2022/02/09 20:58:59;;;;;;;19.77;12.02;;;;;;;;;;5071100;28;20199;-67
2022/02/09 21:01:34;;;;;;;12.88;9.57;;;;;;;;;;5070749;28;20292;-67
2022/02/09 21:04:05;;;;;;;15.23;10.90;;;;;;;;;;5071268;28;20288;-69
2022/02/09 21:06:48;;;;;;;11.32;7.88;;;;;;;;;;5071836;28;20670;-69
2022/02/09 21:09:25;;;;;;;11.57;7.97;;;;;;;;;;5071538;28;20235;-69
2022/02/09 21:12:02;;;;;;;13.32;9.02;;;;;;;;;;5071867;28;20276;-69
2022/02/09 21:14:52;;;;;;;11.82;8.05;;;;;;;;;;5071600;28;20192;-68
2022/02/09 21:17:34;;;;;;;15.90;11.45;;;;;;;;;;5069280;28;20652;-71
2022/02/09 21:23:17;;;;;;;16.55;10.98;;;;;;;;;;5069810;28;20237;-69
2022/02/09 21:26:25;;;;;;;10.13;7.20;;;;;;;;;;5067057;28;20204;-69
2022/02/09 21:32:19;;;;;;;7.95;5.40;;;;;;;;;;5068612;28;20280;-69
2022/02/09 21:46:31;;;;;;;11.88;7.07;;;;;;;;;;5070039;28;20655;-69
2022/02/09 21:52:18;;;;;;;9.15;6.63;;;;;;;;;;5068696;28;20193;-68
2022/02/09 21:54:52;;;;;;;8.07;5.47;;;;;;;;;;5069636;28;20198;-70
2022/02/09 21:57:28;;;;;;;15.60;7.05;;;;;;;;;;5065698;28;20633;-69
2022/02/09 22:16:46;;;;;;;9.25;5.25;;;;;;;;;;5068799;28;20232;-69
2022/02/09 22:19:30;;;;;;;10.40;6.43;;;;;;;;;;5069380;28;20284;-69
2022/02/09 22:27:40;;;;;;;18.05;6.97;;;;;;;;;;5049985;28;20197;-70
2022/02/09 22:50:05;;;;;;;12.57;6.05;;;;;;;;;;5147272;27;20923;-68
2022/02/09 22:55:22;;;;;;;6.78;4.78;;;;;;;;;;5147485;27;20292;-70
2022/02/09 22:57:55;;;;;;;7.10;5.00;;;;;;;;;;5147365;27;20187;-69
2022/02/09 23:00:41;;;;;;;8.05;4.88;;;;;;;;;;5148171;27;20187;-68
2022/02/09 23:03:11;;;;;;;10.90;5.57;;;;;;;;;;5147463;27;20644;-69
2022/02/09 23:06:03;;;;;;;7.15;4.93;;;;;;;;;;5147148;27;20198;-69
2022/02/09 23:09:06;;;;;;;9.05;5.32;;;;;;;;;;5146238;27;20551;-69
2022/02/09 23:11:49;;;;;;;8.38;4.97;;;;;;;;;;5145968;27;20192;-69
2022/02/09 23:17:45;;;;;;;10.43;6.88;;;;;;;;;;5143480;27;20645;-68
2022/02/09 23:23:12;;;;;;;9.43;5.82;;;;;;;;;;5143651;27;20531;-69
2022/02/09 23:26:12;;;;;;;8.95;5.95;;;;;;;;;;5145384;27;20183;-68
